sensor_id;sensor_type;location;lat;lon;timestamp;pressure;altitude;pressure_sealevel;temperature;humidity
54144;BME280;40050;47.324;18.792;2024-01-27T00:01:23;1008.88;;;8.92;71.46
54144;BME280;40050;47.324;18.792;2024-01-27T00:03:24;1008.85;;;8.91;71.12
54144;BME280;40050;47.324;18.792;2024-01-27T00:05:25;1008.81;;;8.85;70.27
54144;BME280;40050;47.324;18.792;2024-01-27T00:07:25;1008.84;;;8.78;69.46
54144;BME280;40050;47.324;18.792;2024-01-27T00:09:26;1008.93;;;8.75;69.55
54144;BME280;40050;47.324;18.792;2024-01-27T00:11:27;1008.93;;;8.74;68.71
54144;BME280;40050;47.324;18.792;2024-01-27T00:13:28;1008.96;;;8.74;68.29
54144;BME280;40050;47.324;18.792;2024-01-27T00:15:29;1008.96;;;8.69;67.11
54144;BME280;40050;47.324;18.792;2024-01-27T00:17:30;1008.94;;;8.68;67.17
54144;BME280;40050;47.324;18.792;2024-01-27T00:19:31;1008.97;;;8.63;66.91
54144;BME280;40050;47.324;18.792;2024-01-27T00:21:32;1009.08;;;8.62;66.74
54144;BME280;40050;47.324;18.792;2024-01-27T00:23:33;1008.93;;;8.55;66.29
54144;BME280;40050;47.324;18.792;2024-01-27T00:25:34;1008.84;;;8.47;65.91
54144;BME280;40050;47.324;18.792;2024-01-27T00:27:35;1008.87;;;8.50;65.60
54144;BME280;40050;47.324;18.792;2024-01-27T00:29:36;1008.91;;;8.47;65.53
54144;BME280;40050;47.324;18.792;2024-01-27T00:31:37;1008.91;;;8.40;65.41
54144;BME280;40050;47.324;18.792;2024-01-27T00:33:38;1009.02;;;8.42;65.52
54144;BME280;40050;47.324;18.792;2024-01-27T00:35:39;1009.04;;;8.41;65.52
54144;BME280;40050;47.324;18.792;2024-01-27T00:37:40;1009.10;;;8.39;65.74
54144;BME280;40050;47.324;18.792;2024-01-27T00:39:41;1009.11;;;8.33;65.81
54144;BME280;40050;47.324;18.792;2024-01-27T00:41:42;1009.06;;;8.31;65.74
54144;BME280;40050;47.324;18.792;2024-01-27T00:43:43;1009.07;;;8.33;65.68
54144;BME280;40050;47.324;18.792;2024-01-27T00:45:44;1009.08;;;8.34;65.90
54144;BME280;40050;47.324;18.792;2024-01-27T00:47:45;1009.20;;;8.28;66.02
54144;BME280;40050;47.324;18.792;2024-01-27T00:49:46;1009.18;;;8.17;66.21
54144;BME280;40050;47.324;18.792;2024-01-27T00:51:47;1009.22;;;8.21;66.39
54144;BME280;40050;47.324;18.792;2024-01-27T00:53:48;1009.20;;;8.14;66.61
54144;BME280;40050;47.324;18.792;2024-01-27T00:55:48;1009.29;;;8.17;66.71
54144;BME280;40050;47.324;18.792;2024-01-27T00:57:49;1009.22;;;8.16;66.66
54144;BME280;40050;47.324;18.792;2024-01-27T00:59:50;1009.25;;;8.26;66.45
54144;BME280;40050;47.324;18.792;2024-01-27T01:01:51;1009.16;;;8.28;66.60
54144;BME280;40050;47.324;18.792;2024-01-27T01:03:52;1009.12;;;8.18;66.37
54144;BME280;40050;47.324;18.792;2024-01-27T01:05:53;1009.35;;;8.22;66.38
54144;BME280;40050;47.324;18.792;2024-01-27T01:07:54;1009.29;;;8.26;66.00
54144;BME280;40050;47.324;18.792;2024-01-27T01:09:55;1009.49;;;8.22;66.12
54144;BME280;40050;47.324;18.792;2024-01-27T01:11:55;1009.60;;;8.23;65.98
54144;BME280;40050;47.324;18.792;2024-01-27T01:13:56;1009.65;;;8.28;65.78
54144;BME280;40050;47.324;18.792;2024-01-27T01:15:57;1009.67;;;8.31;65.57
54144;BME280;40050;47.324;18.792;2024-01-27T01:17:58;1009.74;;;8.33;65.15
54144;BME280;40050;47.324;18.792;2024-01-27T01:19:59;1009.79;;;8.35;65.13
54144;BME280;40050;47.324;18.792;2024-01-27T01:22:00;1009.75;;;8.34;64.76
54144;BME280;40050;47.324;18.792;2024-01-27T01:24:01;1009.91;;;8.31;64.80
54144;BME280;40050;47.324;18.792;2024-01-27T01:26:02;1009.86;;;8.33;64.49
54144;BME280;40050;47.324;18.792;2024-01-27T01:28:03;1009.96;;;8.39;64.37
54144;BME280;40050;47.324;18.792;2024-01-27T01:30:04;1010.05;;;8.36;64.34
54144;BME280;40050;47.324;18.792;2024-01-27T01:32:05;1010.04;;;8.35;64.21
54144;BME280;40050;47.324;18.792;2024-01-27T01:34:06;1010.12;;;8.36;64.06
54144;BME280;40050;47.324;18.792;2024-01-27T01:36:07;1010.02;;;8.32;63.75
54144;BME280;40050;47.324;18.792;2024-01-27T01:38:08;1010.22;;;8.33;63.71
54144;BME280;40050;47.324;18.792;2024-01-27T01:40:09;1010.24;;;8.33;63.71
54144;BME280;40050;47.324;18.792;2024-01-27T01:42:10;1010.25;;;8.35;63.53
54144;BME280;40050;47.324;18.792;2024-01-27T01:44:11;1010.23;;;8.30;63.50
54144;BME280;40050;47.324;18.792;2024-01-27T01:46:12;1010.09;;;8.10;63.34
54144;BME280;40050;47.324;18.792;2024-01-27T01:48:13;1010.24;;;8.25;63.28
54144;BME280;40050;47.324;18.792;2024-01-27T01:50:14;1010.34;;;8.25;63.31
54144;BME280;40050;47.324;18.792;2024-01-27T01:52:15;1010.31;;;8.25;63.12
54144;BME280;40050;47.324;18.792;2024-01-27T01:54:16;1010.38;;;8.20;63.05
54144;BME280;40050;47.324;18.792;2024-01-27T01:56:16;1010.40;;;8.17;62.86
54144;BME280;40050;47.324;18.792;2024-01-27T01:58:17;1010.44;;;8.21;62.53
54144;BME280;40050;47.324;18.792;2024-01-27T02:00:19;1010.45;;;8.14;62.08
54144;BME280;40050;47.324;18.792;2024-01-27T02:02:20;1010.45;;;8.11;62.14
54144;BME280;40050;47.324;18.792;2024-01-27T02:04:21;1010.59;;;8.12;62.45
54144;BME280;40050;47.324;18.792;2024-01-27T02:06:21;1010.59;;;8.14;62.34
54144;BME280;40050;47.324;18.792;2024-01-27T02:08:22;1010.62;;;8.04;61.90
54144;BME280;40050;47.324;18.792;2024-01-27T02:10:23;1010.71;;;8.04;61.87
54144;BME280;40050;47.324;18.792;2024-01-27T02:12:24;1010.65;;;8.02;61.68
54144;BME280;40050;47.324;18.792;2024-01-27T02:14:25;1010.64;;;8.02;61.59
54144;BME280;40050;47.324;18.792;2024-01-27T02:16:26;1010.71;;;7.95;61.41
54144;BME280;40050;47.324;18.792;2024-01-27T02:18:27;1010.74;;;7.94;61.44
54144;BME280;40050;47.324;18.792;2024-01-27T02:20:28;1010.65;;;7.92;61.38
54144;BME280;40050;47.324;18.792;2024-01-27T02:22:29;1010.82;;;7.92;61.35
54144;BME280;40050;47.324;18.792;2024-01-27T02:24:30;1010.89;;;7.92;61.01
54144;BME280;40050;47.324;18.792;2024-01-27T02:26:31;1010.79;;;7.91;61.14
54144;BME280;40050;47.324;18.792;2024-01-27T02:28:32;1010.85;;;7.85;61.22
54144;BME280;40050;47.324;18.792;2024-01-27T02:30:33;1010.84;;;7.85;60.96
54144;BME280;40050;47.324;18.792;2024-01-27T02:32:34;1010.76;;;7.82;61.02
54144;BME280;40050;47.324;18.792;2024-01-27T02:34:34;1010.76;;;7.77;60.63
54144;BME280;40050;47.324;18.792;2024-01-27T02:36:35;1010.83;;;7.78;60.68
54144;BME280;40050;47.324;18.792;2024-01-27T02:38:36;1010.77;;;7.72;60.84
54144;BME280;40050;47.324;18.792;2024-01-27T02:40:37;1010.80;;;7.78;60.51
54144;BME280;40050;47.324;18.792;2024-01-27T02:42:38;1010.98;;;7.70;60.28
54144;BME280;40050;47.324;18.792;2024-01-27T02:44:39;1010.95;;;7.68;60.30
54144;BME280;40050;47.324;18.792;2024-01-27T02:46:40;1010.98;;;7.57;60.20
54144;BME280;40050;47.324;18.792;2024-01-27T02:48:44;1011.10;;;7.61;60.18
54144;BME280;40050;47.324;18.792;2024-01-27T02:50:45;1010.99;;;7.58;59.98
54144;BME280;40050;47.324;18.792;2024-01-27T02:52:46;1011.15;;;7.52;59.93
54144;BME280;40050;47.324;18.792;2024-01-27T02:54:47;1011.16;;;7.54;59.92
54144;BME280;40050;47.324;18.792;2024-01-27T02:56:48;1011.28;;;7.56;59.82
54144;BME280;40050;47.324;18.792;2024-01-27T02:58:48;1011.32;;;7.58;59.23
54144;BME280;40050;47.324;18.792;2024-01-27T03:00:49;1011.31;;;7.59;59.63
54144;BME280;40050;47.324;18.792;2024-01-27T03:02:50;1011.47;;;7.59;59.32
54144;BME280;40050;47.324;18.792;2024-01-27T03:04:51;1011.41;;;7.54;59.34
54144;BME280;40050;47.324;18.792;2024-01-27T03:06:52;1011.57;;;7.55;59.37
54144;BME280;40050;47.324;18.792;2024-01-27T03:08:53;1011.49;;;7.54;59.40
54144;BME280;40050;47.324;18.792;2024-01-27T03:10:54;1011.58;;;7.49;59.55
54144;BME280;40050;47.324;18.792;2024-01-27T03:12:55;1011.67;;;7.48;59.71
54144;BME280;40050;47.324;18.792;2024-01-27T03:14:55;1011.72;;;7.39;60.03
54144;BME280;40050;47.324;18.792;2024-01-27T03:16:57;1011.72;;;7.42;60.20
54144;BME280;40050;47.324;18.792;2024-01-27T03:18:58;1011.76;;;7.45;60.07
54144;BME280;40050;47.324;18.792;2024-01-27T03:20:59;1011.72;;;7.43;60.47
54144;BME280;40050;47.324;18.792;2024-01-27T03:23:00;1011.68;;;7.46;60.54
54144;BME280;40050;47.324;18.792;2024-01-27T03:25:01;1011.71;;;7.35;61.24
54144;BME280;40050;47.324;18.792;2024-01-27T03:27:02;1011.71;;;7.31;61.64
54144;BME280;40050;47.324;18.792;2024-01-27T03:29:03;1011.75;;;7.33;61.97
54144;BME280;40050;47.324;18.792;2024-01-27T03:31:04;1011.76;;;7.26;62.38
54144;BME280;40050;47.324;18.792;2024-01-27T03:33:04;1011.84;;;7.27;62.57
54144;BME280;40050;47.324;18.792;2024-01-27T03:35:06;1011.93;;;7.21;63.03
54144;BME280;40050;47.324;18.792;2024-01-27T03:37:07;1011.95;;;7.27;63.04
54144;BME280;40050;47.324;18.792;2024-01-27T03:39:08;1012.03;;;7.29;63.11
54144;BME280;40050;47.324;18.792;2024-01-27T03:41:08;1011.97;;;7.23;63.33
54144;BME280;40050;47.324;18.792;2024-01-27T03:43:09;1012.14;;;7.21;63.65
54144;BME280;40050;47.324;18.792;2024-01-27T03:45:10;1012.11;;;7.16;63.77
54144;BME280;40050;47.324;18.792;2024-01-27T03:47:11;1012.12;;;7.14;63.86
54144;BME280;40050;47.324;18.792;2024-01-27T03:49:12;1012.23;;;7.08;64.28
54144;BME280;40050;47.324;18.792;2024-01-27T03:51:13;1012.22;;;7.07;64.37
54144;BME280;40050;47.324;18.792;2024-01-27T03:53:14;1012.17;;;7.05;64.41
54144;BME280;40050;47.324;18.792;2024-01-27T03:55:15;1012.26;;;7.09;64.27
54144;BME280;40050;47.324;18.792;2024-01-27T03:57:16;1012.27;;;6.99;64.50
54144;BME280;40050;47.324;18.792;2024-01-27T03:59:17;1012.27;;;6.95;64.51
54144;BME280;40050;47.324;18.792;2024-01-27T04:01:17;1012.35;;;6.97;64.48
54144;BME280;40050;47.324;18.792;2024-01-27T04:03:18;1012.24;;;6.98;64.25
54144;BME280;40050;47.324;18.792;2024-01-27T04:05:19;1012.27;;;6.93;64.27
54144;BME280;40050;47.324;18.792;2024-01-27T04:07:20;1012.19;;;6.85;64.25
54144;BME280;40050;47.324;18.792;2024-01-27T04:09:21;1012.18;;;6.86;63.75
54144;BME280;40050;47.324;18.792;2024-01-27T04:11:22;1012.27;;;6.80;63.59
54144;BME280;40050;47.324;18.792;2024-01-27T04:13:23;1012.34;;;6.82;63.52
54144;BME280;40050;47.324;18.792;2024-01-27T04:15:24;1012.35;;;6.75;63.11
54144;BME280;40050;47.324;18.792;2024-01-27T04:17:25;1012.37;;;6.73;62.90
54144;BME280;40050;47.324;18.792;2024-01-27T04:19:26;1012.50;;;6.76;62.72
54144;BME280;40050;47.324;18.792;2024-01-27T04:21:26;1012.58;;;6.77;62.68
54144;BME280;40050;47.324;18.792;2024-01-27T04:23:27;1012.52;;;6.79;62.72
54144;BME280;40050;47.324;18.792;2024-01-27T04:25:28;1012.60;;;6.77;62.69
54144;BME280;40050;47.324;18.792;2024-01-27T04:27:29;1012.63;;;6.73;62.79
54144;BME280;40050;47.324;18.792;2024-01-27T04:29:30;1012.63;;;6.74;62.96
54144;BME280;40050;47.324;18.792;2024-01-27T04:31:31;1012.68;;;6.68;62.91
54144;BME280;40050;47.324;18.792;2024-01-27T04:33:32;1012.62;;;6.72;62.89
54144;BME280;40050;47.324;18.792;2024-01-27T04:35:33;1012.72;;;6.69;62.88
54144;BME280;40050;47.324;18.792;2024-01-27T04:37:34;1012.83;;;6.68;63.06
54144;BME280;40050;47.324;18.792;2024-01-27T04:39:35;1012.73;;;6.69;62.71
54144;BME280;40050;47.324;18.792;2024-01-27T04:41:41;1012.78;;;6.68;62.53
54144;BME280;40050;47.324;18.792;2024-01-27T04:43:41;1012.82;;;6.66;62.42
54144;BME280;40050;47.324;18.792;2024-01-27T04:45:42;1012.79;;;6.67;62.53
54144;BME280;40050;47.324;18.792;2024-01-27T04:47:44;1012.73;;;6.65;62.21
54144;BME280;40050;47.324;18.792;2024-01-27T04:49:44;1012.70;;;6.65;62.17
54144;BME280;40050;47.324;18.792;2024-01-27T04:51:45;1012.86;;;6.66;61.94
54144;BME280;40050;47.324;18.792;2024-01-27T04:53:46;1012.91;;;6.69;61.95
54144;BME280;40050;47.324;18.792;2024-01-27T04:55:47;1012.93;;;6.68;61.81
54144;BME280;40050;47.324;18.792;2024-01-27T04:57:48;1012.94;;;6.68;61.94
54144;BME280;40050;47.324;18.792;2024-01-27T04:59:49;1012.98;;;6.66;61.69
54144;BME280;40050;47.324;18.792;2024-01-27T05:01:50;1013.01;;;6.74;61.38
54144;BME280;40050;47.324;18.792;2024-01-27T05:03:51;1012.95;;;6.75;61.10
54144;BME280;40050;47.324;18.792;2024-01-27T05:05:52;1013.14;;;6.76;60.70
54144;BME280;40050;47.324;18.792;2024-01-27T05:07:53;1013.01;;;6.73;60.15
54144;BME280;40050;47.324;18.792;2024-01-27T05:09:54;1013.08;;;6.80;60.16
54144;BME280;40050;47.324;18.792;2024-01-27T05:11:54;1013.01;;;6.83;59.62
54144;BME280;40050;47.324;18.792;2024-01-27T05:13:55;1013.05;;;6.77;59.27
54144;BME280;40050;47.324;18.792;2024-01-27T05:15:56;1013.16;;;6.75;59.26
54144;BME280;40050;47.324;18.792;2024-01-27T05:17:57;1013.24;;;6.76;58.78
54144;BME280;40050;47.324;18.792;2024-01-27T05:19:58;1013.32;;;6.75;58.37
54144;BME280;40050;47.324;18.792;2024-01-27T05:21:59;1013.26;;;6.71;58.37
54144;BME280;40050;47.324;18.792;2024-01-27T05:24:00;1013.37;;;6.71;57.83
54144;BME280;40050;47.324;18.792;2024-01-27T05:26:01;1013.34;;;6.68;57.83
54144;BME280;40050;47.324;18.792;2024-01-27T05:28:02;1013.31;;;6.68;57.64
54144;BME280;40050;47.324;18.792;2024-01-27T05:30:03;1013.35;;;6.64;57.32
54144;BME280;40050;47.324;18.792;2024-01-27T05:32:04;1013.33;;;6.63;57.38
54144;BME280;40050;47.324;18.792;2024-01-27T05:34:04;1013.43;;;6.64;56.44
54144;BME280;40050;47.324;18.792;2024-01-27T05:36:05;1013.41;;;6.62;56.56
54144;BME280;40050;47.324;18.792;2024-01-27T05:38:06;1013.30;;;6.55;56.56
54144;BME280;40050;47.324;18.792;2024-01-27T05:40:07;1013.37;;;6.60;56.51
54144;BME280;40050;47.324;18.792;2024-01-27T05:42:08;1013.29;;;6.59;56.46
54144;BME280;40050;47.324;18.792;2024-01-27T05:44:09;1013.32;;;6.51;56.55
54144;BME280;40050;47.324;18.792;2024-01-27T05:46:10;1013.24;;;6.47;56.10
54144;BME280;40050;47.324;18.792;2024-01-27T05:48:11;1013.39;;;6.46;56.50
54144;BME280;40050;47.324;18.792;2024-01-27T05:50:12;1013.48;;;6.52;56.62
54144;BME280;40050;47.324;18.792;2024-01-27T05:52:13;1013.49;;;6.56;56.70
54144;BME280;40050;47.324;18.792;2024-01-27T05:54:14;1013.58;;;6.55;56.69
54144;BME280;40050;47.324;18.792;2024-01-27T05:56:15;1013.66;;;6.63;56.86
54144;BME280;40050;47.324;18.792;2024-01-27T05:58:15;1013.70;;;6.64;57.08
54144;BME280;40050;47.324;18.792;2024-01-27T06:00:16;1013.57;;;6.63;57.14
54144;BME280;40050;47.324;18.792;2024-01-27T06:02:17;1013.66;;;6.60;57.68
54144;BME280;40050;47.324;18.792;2024-01-27T06:04:18;1013.49;;;6.65;57.79
54144;BME280;40050;47.324;18.792;2024-01-27T06:06:19;1013.53;;;6.53;58.17
54144;BME280;40050;47.324;18.792;2024-01-27T06:08:20;1013.57;;;6.58;58.20
54144;BME280;40050;47.324;18.792;2024-01-27T06:10:21;1013.69;;;6.59;58.44
54144;BME280;40050;47.324;18.792;2024-01-27T06:12:22;1013.82;;;6.63;58.48
54144;BME280;40050;47.324;18.792;2024-01-27T06:14:23;1013.83;;;6.61;58.67
54144;BME280;40050;47.324;18.792;2024-01-27T06:16:24;1013.88;;;6.60;58.69
54144;BME280;40050;47.324;18.792;2024-01-27T06:18:24;1013.89;;;6.65;58.83
54144;BME280;40050;47.324;18.792;2024-01-27T06:20:25;1013.91;;;6.58;58.89
54144;BME280;40050;47.324;18.792;2024-01-27T06:22:26;1013.90;;;6.61;58.74
54144;BME280;40050;47.324;18.792;2024-01-27T06:24:27;1013.90;;;6.58;58.89
54144;BME280;40050;47.324;18.792;2024-01-27T06:26:28;1013.86;;;6.58;58.81
54144;BME280;40050;47.324;18.792;2024-01-27T06:28:29;1013.87;;;6.52;59.15
54144;BME280;40050;47.324;18.792;2024-01-27T06:30:30;1013.99;;;6.55;59.24
54144;BME280;40050;47.324;18.792;2024-01-27T06:32:31;1014.12;;;6.54;59.16
54144;BME280;40050;47.324;18.792;2024-01-27T06:34:32;1014.02;;;6.53;59.25
54144;BME280;40050;47.324;18.792;2024-01-27T06:36:33;1014.11;;;6.54;59.06
54144;BME280;40050;47.324;18.792;2024-01-27T06:38:33;1013.99;;;6.46;59.00
54144;BME280;40050;47.324;18.792;2024-01-27T06:40:34;1014.10;;;6.51;58.96
54144;BME280;40050;47.324;18.792;2024-01-27T06:42:35;1014.03;;;6.51;59.06
54144;BME280;40050;47.324;18.792;2024-01-27T06:44:36;1014.02;;;6.50;59.16
54144;BME280;40050;47.324;18.792;2024-01-27T06:46:37;1014.06;;;6.55;58.94
54144;BME280;40050;47.324;18.792;2024-01-27T06:48:38;1013.98;;;6.52;58.84
54144;BME280;40050;47.324;18.792;2024-01-27T06:50:39;1014.04;;;6.52;58.77
54144;BME280;40050;47.324;18.792;2024-01-27T06:52:40;1014.04;;;6.47;58.81
54144;BME280;40050;47.324;18.792;2024-01-27T06:54:40;1014.13;;;6.52;58.73
54144;BME280;40050;47.324;18.792;2024-01-27T06:56:41;1014.13;;;6.50;58.66
54144;BME280;40050;47.324;18.792;2024-01-27T06:58:42;1014.16;;;6.51;58.36
54144;BME280;40050;47.324;18.792;2024-01-27T07:00:44;1014.16;;;6.50;58.36
54144;BME280;40050;47.324;18.792;2024-01-27T07:02:45;1014.15;;;6.54;58.46
54144;BME280;40050;47.324;18.792;2024-01-27T07:04:46;1014.15;;;6.54;58.65
54144;BME280;40050;47.324;18.792;2024-01-27T07:06:47;1014.24;;;6.54;58.07
54144;BME280;40050;47.324;18.792;2024-01-27T07:08:48;1014.18;;;6.58;58.07
54144;BME280;40050;47.324;18.792;2024-01-27T07:10:49;1014.28;;;6.58;58.34
54144;BME280;40050;47.324;18.792;2024-01-27T07:12:50;1014.35;;;6.60;58.23
54144;BME280;40050;47.324;18.792;2024-01-27T07:14:51;1014.33;;;6.56;58.20
54144;BME280;40050;47.324;18.792;2024-01-27T07:16:52;1014.34;;;6.57;58.54
54144;BME280;40050;47.324;18.792;2024-01-27T07:18:53;1014.41;;;6.63;58.54
54144;BME280;40050;47.324;18.792;2024-01-27T07:20:54;1014.35;;;6.65;58.46
54144;BME280;40050;47.324;18.792;2024-01-27T07:22:55;1014.33;;;6.60;58.41
54144;BME280;40050;47.324;18.792;2024-01-27T07:24:56;1014.34;;;6.65;58.46
54144;BME280;40050;47.324;18.792;2024-01-27T07:26:57;1014.43;;;6.65;58.72
54144;BME280;40050;47.324;18.792;2024-01-27T07:28:58;1014.37;;;6.67;58.76
54144;BME280;40050;47.324;18.792;2024-01-27T07:30:59;1014.33;;;6.63;58.67
54144;BME280;40050;47.324;18.792;2024-01-27T07:33:00;1014.41;;;6.66;58.68
54144;BME280;40050;47.324;18.792;2024-01-27T07:35:01;1014.46;;;6.71;59.00
54144;BME280;40050;47.324;18.792;2024-01-27T07:37:02;1014.46;;;6.72;58.48
54144;BME280;40050;47.324;18.792;2024-01-27T07:39:03;1014.43;;;6.77;58.55
54144;BME280;40050;47.324;18.792;2024-01-27T07:41:04;1014.50;;;6.81;58.49
54144;BME280;40050;47.324;18.792;2024-01-27T07:43:04;1014.63;;;6.86;58.66
54144;BME280;40050;47.324;18.792;2024-01-27T07:45:08;1014.61;;;6.88;58.27
54144;BME280;40050;47.324;18.792;2024-01-27T07:47:09;1014.68;;;6.92;58.48
54144;BME280;40050;47.324;18.792;2024-01-27T07:49:10;1014.79;;;7.00;58.42
54144;BME280;40050;47.324;18.792;2024-01-27T07:51:11;1014.71;;;7.02;58.36
54144;BME280;40050;47.324;18.792;2024-01-27T07:53:12;1014.89;;;7.08;58.53
54144;BME280;40050;47.324;18.792;2024-01-27T07:55:13;1014.90;;;7.09;58.33
54144;BME280;40050;47.324;18.792;2024-01-27T07:57:14;1015.00;;;7.23;58.03
54144;BME280;40050;47.324;18.792;2024-01-27T07:59:15;1015.00;;;7.28;58.03
54144;BME280;40050;47.324;18.792;2024-01-27T08:01:16;1015.12;;;7.40;58.25
54144;BME280;40050;47.324;18.792;2024-01-27T08:03:17;1015.14;;;7.46;58.08
54144;BME280;40050;47.324;18.792;2024-01-27T08:05:18;1015.26;;;7.51;57.46
54144;BME280;40050;47.324;18.792;2024-01-27T08:07:19;1015.38;;;7.62;57.35
54144;BME280;40050;47.324;18.792;2024-01-27T08:09:19;1015.41;;;7.75;57.60
54144;BME280;40050;47.324;18.792;2024-01-27T08:11:20;1015.51;;;7.88;57.23
54144;BME280;40050;47.324;18.792;2024-01-27T08:13:21;1015.48;;;7.99;56.42
54144;BME280;40050;47.324;18.792;2024-01-27T08:15:22;1015.55;;;8.08;55.58
54144;BME280;40050;47.324;18.792;2024-01-27T08:17:23;1015.54;;;8.17;55.43
54144;BME280;40050;47.324;18.792;2024-01-27T08:19:24;1015.53;;;8.19;55.46
54144;BME280;40050;47.324;18.792;2024-01-27T08:21:25;1015.69;;;8.35;54.77
54144;BME280;40050;47.324;18.792;2024-01-27T08:23:26;1015.61;;;8.48;54.63
54144;BME280;40050;47.324;18.792;2024-01-27T08:25:27;1015.72;;;8.57;53.98
54144;BME280;40050;47.324;18.792;2024-01-27T08:27:28;1015.67;;;8.72;54.38
54144;BME280;40050;47.324;18.792;2024-01-27T08:29:29;1015.70;;;8.85;54.20
54144;BME280;40050;47.324;18.792;2024-01-27T08:31:29;1015.69;;;9.02;53.81
54144;BME280;40050;47.324;18.792;2024-01-27T08:33:30;1015.72;;;9.16;52.93
54144;BME280;40050;47.324;18.792;2024-01-27T08:35:31;1015.72;;;9.27;53.60
54144;BME280;40050;47.324;18.792;2024-01-27T08:37:32;1015.67;;;9.30;52.79
54144;BME280;40050;47.324;18.792;2024-01-27T08:39:33;1015.67;;;9.42;52.34
54144;BME280;40050;47.324;18.792;2024-01-27T08:41:34;1015.58;;;9.45;52.29
54144;BME280;40050;47.324;18.792;2024-01-27T08:43:35;1015.63;;;9.55;51.75
54144;BME280;40050;47.324;18.792;2024-01-27T08:45:37;1015.68;;;9.60;51.93
54144;BME280;40050;47.324;18.792;2024-01-27T08:47:38;1015.75;;;9.71;51.82
54144;BME280;40050;47.324;18.792;2024-01-27T08:49:38;1015.80;;;9.78;51.67
54144;BME280;40050;47.324;18.792;2024-01-27T08:51:39;1015.85;;;9.76;51.07
54144;BME280;40050;47.324;18.792;2024-01-27T08:53:40;1015.71;;;9.78;50.66
54144;BME280;40050;47.324;18.792;2024-01-27T08:55:41;1015.94;;;9.86;50.27
54144;BME280;40050;47.324;18.792;2024-01-27T08:57:42;1015.85;;;9.92;50.53
54144;BME280;40050;47.324;18.792;2024-01-27T08:59:43;1015.91;;;9.87;49.20
54144;BME280;40050;47.324;18.792;2024-01-27T09:01:44;1015.98;;;9.79;49.82
54144;BME280;40050;47.324;18.792;2024-01-27T09:03:45;1016.04;;;9.94;49.71
54144;BME280;40050;47.324;18.792;2024-01-27T09:05:46;1016.06;;;10.01;49.61
54144;BME280;40050;47.324;18.792;2024-01-27T09:07:47;1016.11;;;10.10;49.51
54144;BME280;40050;47.324;18.792;2024-01-27T09:09:48;1016.13;;;10.13;49.21
54144;BME280;40050;47.324;18.792;2024-01-27T09:11:49;1016.11;;;10.25;50.30
54144;BME280;40050;47.324;18.792;2024-01-27T09:13:50;1016.18;;;10.25;48.79
54144;BME280;40050;47.324;18.792;2024-01-27T09:15:51;1016.11;;;10.24;48.14
54144;BME280;40050;47.324;18.792;2024-01-27T09:17:52;1016.07;;;10.25;48.35
54144;BME280;40050;47.324;18.792;2024-01-27T09:19:53;1016.18;;;10.28;48.08
54144;BME280;40050;47.324;18.792;2024-01-27T09:21:54;1016.23;;;10.30;47.95
54144;BME280;40050;47.324;18.792;2024-01-27T09:23:55;1016.25;;;10.29;47.90
54144;BME280;40050;47.324;18.792;2024-01-27T09:25:55;1016.16;;;10.39;47.92
54144;BME280;40050;47.324;18.792;2024-01-27T09:27:56;1016.11;;;10.37;47.29
54144;BME280;40050;47.324;18.792;2024-01-27T09:29:57;1016.18;;;10.31;47.05
54144;BME280;40050;47.324;18.792;2024-01-27T09:31:58;1016.21;;;10.34;47.45
54144;BME280;40050;47.324;18.792;2024-01-27T09:33:59;1016.11;;;10.25;47.28
54144;BME280;40050;47.324;18.792;2024-01-27T09:36:00;1016.06;;;10.26;47.27
54144;BME280;40050;47.324;18.792;2024-01-27T09:38:01;1016.04;;;10.29;46.99
54144;BME280;40050;47.324;18.792;2024-01-27T09:40:02;1015.97;;;10.34;47.55
54144;BME280;40050;47.324;18.792;2024-01-27T09:42:04;1015.92;;;10.35;47.21
54144;BME280;40050;47.324;18.792;2024-01-27T09:44:06;1015.91;;;10.38;47.20
54144;BME280;40050;47.324;18.792;2024-01-27T09:46:07;1015.94;;;10.46;47.97
54144;BME280;40050;47.324;18.792;2024-01-27T09:48:08;1015.87;;;10.42;46.51
54144;BME280;40050;47.324;18.792;2024-01-27T09:50:11;1015.86;;;10.51;46.90
54144;BME280;40050;47.324;18.792;2024-01-27T09:52:12;1015.92;;;10.46;47.01
54144;BME280;40050;47.324;18.792;2024-01-27T09:54:13;1015.73;;;10.48;46.35
54144;BME280;40050;47.324;18.792;2024-01-27T09:56:14;1015.74;;;10.60;46.43
54144;BME280;40050;47.324;18.792;2024-01-27T09:58:14;1015.89;;;10.72;46.90
54144;BME280;40050;47.324;18.792;2024-01-27T10:00:18;1015.57;;;10.57;46.39
54144;BME280;40050;47.324;18.792;2024-01-27T10:02:19;1015.62;;;10.61;45.83
54144;BME280;40050;47.324;18.792;2024-01-27T10:04:22;1015.72;;;10.67;45.63
54144;BME280;40050;47.324;18.792;2024-01-27T10:06:23;1015.69;;;10.63;46.66
54144;BME280;40050;47.324;18.792;2024-01-27T10:08:24;1015.64;;;10.68;46.37
54144;BME280;40050;47.324;18.792;2024-01-27T10:10:25;1015.68;;;10.77;46.11
54144;BME280;40050;47.324;18.792;2024-01-27T10:12:26;1015.80;;;10.76;45.78
54144;BME280;40050;47.324;18.792;2024-01-27T10:14:38;1015.72;;;10.88;46.73
54144;BME280;40050;47.324;18.792;2024-01-27T10:16:39;1015.77;;;11.03;46.21
54144;BME280;40050;47.324;18.792;2024-01-27T10:18:40;1015.68;;;10.97;45.26
54144;BME280;40050;47.324;18.792;2024-01-27T10:20:41;1015.65;;;10.95;44.87
54144;BME280;40050;47.324;18.792;2024-01-27T10:22:42;1015.70;;;10.89;45.88
54144;BME280;40050;47.324;18.792;2024-01-27T10:24:43;1015.80;;;10.94;45.34
54144;BME280;40050;47.324;18.792;2024-01-27T10:26:44;1015.64;;;10.99;44.92
54144;BME280;40050;47.324;18.792;2024-01-27T10:28:54;1015.67;;;10.94;44.93
54144;BME280;40050;47.324;18.792;2024-01-27T10:31:07;1015.70;;;10.87;44.87
54144;BME280;40050;47.324;18.792;2024-01-27T10:33:08;1015.75;;;10.78;45.16
54144;BME280;40050;47.324;18.792;2024-01-27T10:35:09;1015.66;;;10.75;44.16
54144;BME280;40050;47.324;18.792;2024-01-27T10:37:12;1015.70;;;10.67;44.66
54144;BME280;40050;47.324;18.792;2024-01-27T10:39:21;1015.68;;;10.64;44.49
54144;BME280;40050;47.324;18.792;2024-01-27T10:41:23;1015.62;;;10.72;45.48
54144;BME280;40050;47.324;18.792;2024-01-27T10:43:24;1015.63;;;10.61;45.22
54144;BME280;40050;47.324;18.792;2024-01-27T10:45:26;1015.65;;;10.63;45.67
54144;BME280;40050;47.324;18.792;2024-01-27T10:47:28;1015.52;;;10.61;45.49
54144;BME280;40050;47.324;18.792;2024-01-27T10:49:29;1015.68;;;10.62;45.59